Saint Albans, Missouri
Current Conditions -  °F | °C
As of 1:54 AM on Sunday 26 Oct 2014 (Local Time) from KSUS Reporting Station
Haze Haze  
Wind Chill: 50°   Ceiling: Unl
Heat Index: 50°   Visibility: 5mi
Dew Point: 49°   Wind: 0mph
Humidity: 96%   Direction: NA
Pressure: 30.01"   Gusts: NA
Location:  38.58°N, 90.77°W
Report Text: KSUS 260654Z AUTO 00000KT 5SM BR CLR 10/09 A3001 RMK AO2 SLP159 T01000094
Loading
Personal Weather Stations






























Interactive Weather Map
Tropical Storm Tracking
New forecast layout! Learn more

10-Day Weather Forecast

Advertisements
Track Severe Weather on mobile